Create Tblcommutelog Verified Points Advance Search
| # | Trip ID | Id Commuter | Trip Date | Trip Num | Current Lat | Current Lng | Delta Distance | Current Time | Activity | Activity Confidence | Current Speed | |
|---|---|---|---|---|---|---|---|---|---|---|---|---|
| 72981 | 250924_741893_16420496_0659 | 741893 | (not set) | (not set) | 38.8075274 | -77.0595169 | 0.4996 | 2025-09-24 07:09:27 | in_vehicle | 100 | 9.3833540461523 | |
| 72982 | 250924_741893_16420496_0659 | 741893 | (not set) | (not set) | 38.8093542 | -77.0574056 | 0.6695 | 2025-09-24 07:09:37 | in_vehicle | 100 | 12.244405303674 | |
| 72983 | 250924_741893_16420496_0659 | 741893 | (not set) | (not set) | 38.8117237 | -77.0553783 | 0.8661 | 2025-09-24 07:09:49 | in_vehicle | 100 | 10.398133164054 | |
| 72984 | 250924_741893_16420496_0659 | 741893 | (not set) | (not set) | 38.8141452 | -77.0536778 | 1.0567 | 2025-09-24 07:10:51 | in_vehicle | 100 | 3.2946793387395 | |
| 72985 | 250924_741893_16420496_0659 | 741893 | (not set) | (not set) | 38.8168468 | -77.0515025 | 1.2786 | 2025-09-24 07:11:10 | in_vehicle | 100 | 10.666356719447 | |
| 72986 | 250924_741893_16420496_0659 | 741893 | (not set) | (not set) | 38.8146236 | -77.0537479 | 1.467 | 2025-09-24 07:11:46 | in_vehicle | 100 | -0.44703925898772 | |
| 72987 | 250924_741893_16420496_0659 | 741893 | (not set) | (not set) | 38.831279 | -77.0465351 | 2.3286 | 2025-09-24 07:12:24 | in_vehicle | 100 | 8.1405849061665 | |
| 72988 | 250924_784850_6452825_0723 | 784850 | (not set) | (not set) | 38.988628769279 | -76.936509522251 | 2.9886 | 2025-09-24 07:42:25 | in_vehicle | 100 | 0.86278576984631 | |
| 72989 | 250924_741893_16420496_0659 | 741893 | (not set) | (not set) | 38.8192579 | -77.0498624 | 1.467 | 2025-09-24 07:11:21 | in_vehicle | 100 | 12.070059992669 | |
| 72990 | 250924_741893_16420496_0659 | 741893 | (not set) | (not set) | 38.8335849 | -77.0464236 | 2.4878 | 2025-09-24 07:13:28 | in_vehicle | 100 | 5.6371650558352 | |
| 72991 | 250924_784850_6452825_0723 | 784850 | (not set) | (not set) | 38.988628769279 | -76.936509522251 | 2.9886 | 2025-09-24 07:42:25 | in_vehicle | 100 | 0.86278576984631 | |
| 72992 | 250924_741893_16420496_0659 | 741893 | (not set) | (not set) | 38.8262753 | -77.045817 | 1.467 | 2025-09-24 07:11:54 | in_vehicle | 100 | -0.44703925898772 | |
| 72993 | 250924_781336_16450333_0645 | 781336 | (not set) | (not set) | 38.889007568359 | -77.028512742413 | 28.544 | 2025-09-24 07:42:24 | in_vehicle | 100 | -0.44703925898772 | |
| 72994 | 250924_788078_16413954_0710 | 788078 | (not set) | (not set) | 39.008609807203 | -77.052059829956 | 15.0008 | 2025-09-24 07:42:25 | in_vehicle | 100 | 11.099984800665 | |
| 72995 | 250924_741893_16420496_0659 | 741893 | (not set) | (not set) | 38.8354672 | -77.0463515 | 2.6176 | 2025-09-24 07:13:40 | in_vehicle | 100 | 8.194229617245 | |
| 72996 | 250924_781336_16450333_0645 | 781336 | (not set) | (not set) | 38.889007568359 | -77.028512742413 | 28.544 | 2025-09-24 07:42:25 | in_vehicle | 100 | -0.44703925898772 | |
| 72997 | 250924_767309_6423049_0735 | 767309 | (not set) | (not set) | 38.89899301623 | -77.043388138256 | 0.368 | 2025-09-24 07:42:25 | on_foot | 100 | 0.84937459207668 | |
| 72998 | 250924_767309_6423049_0735 | 767309 | (not set) | (not set) | 38.89899301623 | -77.043388138256 | 0.368 | 2025-09-24 07:42:25 | on_foot | 100 | 0.84937459207668 | |
| 72999 | 250924_741893_16420496_0659 | 741893 | (not set) | (not set) | 38.8377458 | -77.0465819 | 2.7754 | 2025-09-24 07:13:52 | in_vehicle | 100 | 10.389192378875 | |
| 73000 | 250924_741893_16420496_0659 | 741893 | (not set) | (not set) | 38.840285 | -77.0482505 | 2.9723 | 2025-09-24 07:14:05 | in_vehicle | 100 | 10.509892978801 |